sensor_id;sensor_type;location;lat;lon;timestamp;P1;durP1;ratioP1;P2;durP2;ratioP2
23362;SDS011;11853;48.080;11.960;2022-11-20T00:00:17;2.78;;;2.33;;
23362;SDS011;11853;48.080;11.960;2022-11-20T00:02:43;2.08;;;1.90;;
23362;SDS011;11853;48.080;11.960;2022-11-20T00:05:09;2.30;;;2.10;;
23362;SDS011;11853;48.080;11.960;2022-11-20T00:07:35;2.28;;;2.00;;
23362;SDS011;11853;48.080;11.960;2022-11-20T00:10:01;3.63;;;2.10;;
23362;SDS011;11853;48.080;11.960;2022-11-20T00:12:26;2.67;;;2.10;;
23362;SDS011;11853;48.080;11.960;2022-11-20T00:14:54;2.67;;;2.45;;
23362;SDS011;11853;48.080;11.960;2022-11-20T00:17:20;2.75;;;2.15;;
23362;SDS011;11853;48.080;11.960;2022-11-20T00:19:46;3.20;;;2.10;;
23362;SDS011;11853;48.080;11.960;2022-11-20T00:22:11;2.10;;;2.00;;
23362;SDS011;11853;48.080;11.960;2022-11-20T00:24:37;4.22;;;2.65;;
23362;SDS011;11853;48.080;11.960;2022-11-20T00:27:02;2.88;;;2.28;;
23362;SDS011;11853;48.080;11.960;2022-11-20T00:29:28;2.20;;;2.00;;
23362;SDS011;11853;48.080;11.960;2022-11-20T00:31:54;2.50;;;2.30;;
23362;SDS011;11853;48.080;11.960;2022-11-20T00:34:19;2.33;;;2.08;;
23362;SDS011;11853;48.080;11.960;2022-11-20T00:36:45;2.88;;;2.30;;
23362;SDS011;11853;48.080;11.960;2022-11-20T00:39:11;2.25;;;2.05;;
23362;SDS011;11853;48.080;11.960;2022-11-20T00:41:36;2.47;;;2.28;;
23362;SDS011;11853;48.080;11.960;2022-11-20T00:44:02;2.35;;;2.05;;
23362;SDS011;11853;48.080;11.960;2022-11-20T00:46:27;2.70;;;2.40;;
23362;SDS011;11853;48.080;11.960;2022-11-20T00:48:53;2.67;;;2.47;;
23362;SDS011;11853;48.080;11.960;2022-11-20T00:51:20;3.08;;;2.53;;
23362;SDS011;11853;48.080;11.960;2022-11-20T00:53:47;2.22;;;2.10;;
23362;SDS011;11853;48.080;11.960;2022-11-20T00:56:14;2.58;;;2.22;;
23362;SDS011;11853;48.080;11.960;2022-11-20T00:58:41;2.22;;;2.03;;
23362;SDS011;11853;48.080;11.960;2022-11-20T01:01:12;2.38;;;1.75;;
23362;SDS011;11853;48.080;11.960;2022-11-20T01:03:41;1.90;;;1.80;;
23362;SDS011;11853;48.080;11.960;2022-11-20T01:09:09;2.63;;;2.15;;
23362;SDS011;11853;48.080;11.960;2022-11-20T01:11:38;2.45;;;2.10;;
23362;SDS011;11853;48.080;11.960;2022-11-20T01:14:06;2.08;;;1.60;;
23362;SDS011;11853;48.080;11.960;2022-11-20T01:16:35;2.42;;;2.13;;
23362;SDS011;11853;48.080;11.960;2022-11-20T01:19:07;1.80;;;1.70;;
23362;SDS011;11853;48.080;11.960;2022-11-20T01:21:37;2.00;;;1.73;;
23362;SDS011;11853;48.080;11.960;2022-11-20T01:24:05;1.80;;;1.70;;
23362;SDS011;11853;48.080;11.960;2022-11-20T01:26:33;2.30;;;2.10;;
23362;SDS011;11853;48.080;11.960;2022-11-20T01:29:00;3.10;;;2.08;;
23362;SDS011;11853;48.080;11.960;2022-11-20T01:31:28;2.28;;;2.08;;
23362;SDS011;11853;48.080;11.960;2022-11-20T01:33:57;2.30;;;2.10;;
23362;SDS011;11853;48.080;11.960;2022-11-20T01:36:25;2.05;;;1.88;;
23362;SDS011;11853;48.080;11.960;2022-11-20T01:38:52;3.03;;;1.88;;
23362;SDS011;11853;48.080;11.960;2022-11-20T01:41:19;2.30;;;2.10;;
23362;SDS011;11853;48.080;11.960;2022-11-20T01:44:04;2.10;;;1.98;;
23362;SDS011;11853;48.080;11.960;2022-11-20T01:46:31;2.90;;;2.20;;
23362;SDS011;11853;48.080;11.960;2022-11-20T01:49:03;2.40;;;2.20;;
23362;SDS011;11853;48.080;11.960;2022-11-20T01:51:35;2.63;;;2.03;;
23362;SDS011;11853;48.080;11.960;2022-11-20T01:54:09;2.00;;;1.80;;
23362;SDS011;11853;48.080;11.960;2022-11-20T01:56:41;3.63;;;2.38;;
23362;SDS011;11853;48.080;11.960;2022-11-20T01:59:09;2.03;;;1.92;;
23362;SDS011;11853;48.080;11.960;2022-11-20T02:01:38;2.42;;;2.22;;
23362;SDS011;11853;48.080;11.960;2022-11-20T02:04:04;2.60;;;2.40;;
23362;SDS011;11853;48.080;11.960;2022-11-20T02:06:36;2.85;;;2.30;;
23362;SDS011;11853;48.080;11.960;2022-11-20T02:09:23;2.10;;;1.90;;
23362;SDS011;11853;48.080;11.960;2022-11-20T02:11:49;2.67;;;2.25;;
23362;SDS011;11853;48.080;11.960;2022-11-20T02:14:14;3.05;;;2.47;;
23362;SDS011;11853;48.080;11.960;2022-11-20T02:16:43;2.50;;;2.22;;
23362;SDS011;11853;48.080;11.960;2022-11-20T02:19:31;2.58;;;2.33;;
23362;SDS011;11853;48.080;11.960;2022-11-20T02:22:00;1.90;;;1.80;;
23362;SDS011;11853;48.080;11.960;2022-11-20T02:24:38;2.30;;;1.93;;
23362;SDS011;11853;48.080;11.960;2022-11-20T02:27:09;2.42;;;2.22;;
23362;SDS011;11853;48.080;11.960;2022-11-20T02:29:53;2.60;;;2.10;;
23362;SDS011;11853;48.080;11.960;2022-11-20T02:32:27;2.08;;;1.98;;
23362;SDS011;11853;48.080;11.960;2022-11-20T02:34:55;3.35;;;2.60;;
23362;SDS011;11853;48.080;11.960;2022-11-20T02:37:20;2.47;;;2.28;;
23362;SDS011;11853;48.080;11.960;2022-11-20T02:39:47;2.17;;;2.08;;
23362;SDS011;11853;48.080;11.960;2022-11-20T02:42:15;2.80;;;2.60;;
23362;SDS011;11853;48.080;11.960;2022-11-20T02:44:40;2.60;;;2.40;;
23362;SDS011;11853;48.080;11.960;2022-11-20T02:47:06;3.20;;;2.47;;
23362;SDS011;11853;48.080;11.960;2022-11-20T02:49:32;2.33;;;2.17;;
23362;SDS011;11853;48.080;11.960;2022-11-20T02:51:58;2.95;;;2.30;;
23362;SDS011;11853;48.080;11.960;2022-11-20T02:54:23;3.47;;;2.30;;
23362;SDS011;11853;48.080;11.960;2022-11-20T02:56:49;2.97;;;2.67;;
23362;SDS011;11853;48.080;11.960;2022-11-20T02:59:15;3.17;;;2.92;;
23362;SDS011;11853;48.080;11.960;2022-11-20T03:01:40;2.90;;;2.60;;
23362;SDS011;11853;48.080;11.960;2022-11-20T03:04:06;2.80;;;2.60;;
23362;SDS011;11853;48.080;11.960;2022-11-20T03:06:31;2.60;;;2.40;;
23362;SDS011;11853;48.080;11.960;2022-11-20T03:08:57;2.53;;;2.30;;
23362;SDS011;11853;48.080;11.960;2022-11-20T03:11:23;3.17;;;2.90;;
23362;SDS011;11853;48.080;11.960;2022-11-20T03:13:49;3.28;;;2.45;;
23362;SDS011;11853;48.080;11.960;2022-11-20T03:16:16;2.90;;;2.40;;
23362;SDS011;11853;48.080;11.960;2022-11-20T03:18:44;4.63;;;2.72;;
23362;SDS011;11853;48.080;11.960;2022-11-20T03:21:10;3.10;;;2.83;;
23362;SDS011;11853;48.080;11.960;2022-11-20T03:23:37;2.95;;;2.65;;
23362;SDS011;11853;48.080;11.960;2022-11-20T03:26:08;3.22;;;2.95;;
23362;SDS011;11853;48.080;11.960;2022-11-20T03:28:40;3.63;;;2.95;;
23362;SDS011;11853;48.080;11.960;2022-11-20T03:31:10;3.10;;;2.63;;
23362;SDS011;11853;48.080;11.960;2022-11-20T03:33:40;3.92;;;2.83;;
23362;SDS011;11853;48.080;11.960;2022-11-20T03:36:10;2.88;;;2.63;;
23362;SDS011;11853;48.080;11.960;2022-11-20T03:38:37;2.60;;;2.40;;
23362;SDS011;11853;48.080;11.960;2022-11-20T03:41:07;2.80;;;2.60;;
23362;SDS011;11853;48.080;11.960;2022-11-20T03:46:04;2.58;;;2.38;;
23362;SDS011;11853;48.080;11.960;2022-11-20T03:48:30;3.65;;;2.60;;
23362;SDS011;11853;48.080;11.960;2022-11-20T03:51:06;4.68;;;2.92;;
23362;SDS011;11853;48.080;11.960;2022-11-20T03:53:43;2.75;;;2.55;;
23362;SDS011;11853;48.080;11.960;2022-11-20T03:56:10;3.05;;;2.80;;
23362;SDS011;11853;48.080;11.960;2022-11-20T03:58:38;2.88;;;2.63;;
23362;SDS011;11853;48.080;11.960;2022-11-20T04:01:11;3.35;;;2.92;;
23362;SDS011;11853;48.080;11.960;2022-11-20T04:03:39;2.90;;;2.70;;
23362;SDS011;11853;48.080;11.960;2022-11-20T04:06:07;4.70;;;2.55;;
23362;SDS011;11853;48.080;11.960;2022-11-20T04:08:49;2.65;;;2.45;;
23362;SDS011;11853;48.080;11.960;2022-11-20T04:11:16;2.65;;;2.45;;
23362;SDS011;11853;48.080;11.960;2022-11-20T04:13:47;2.60;;;2.42;;
23362;SDS011;11853;48.080;11.960;2022-11-20T04:16:17;2.85;;;2.65;;
23362;SDS011;11853;48.080;11.960;2022-11-20T04:18:43;3.33;;;2.72;;
23362;SDS011;11853;48.080;11.960;2022-11-20T04:21:09;2.92;;;2.60;;
23362;SDS011;11853;48.080;11.960;2022-11-20T04:23:35;2.60;;;2.40;;
23362;SDS011;11853;48.080;11.960;2022-11-20T04:26:05;3.33;;;2.60;;
23362;SDS011;11853;48.080;11.960;2022-11-20T04:28:32;4.00;;;2.80;;
23362;SDS011;11853;48.080;11.960;2022-11-20T04:31:02;2.78;;;2.58;;
23362;SDS011;11853;48.080;11.960;2022-11-20T04:33:28;2.70;;;2.50;;
23362;SDS011;11853;48.080;11.960;2022-11-20T04:35:54;2.90;;;2.60;;
23362;SDS011;11853;48.080;11.960;2022-11-20T04:38:19;3.70;;;2.60;;
23362;SDS011;11853;48.080;11.960;2022-11-20T04:40:45;3.13;;;2.83;;
23362;SDS011;11853;48.080;11.960;2022-11-20T04:43:11;2.45;;;2.25;;
23362;SDS011;11853;48.080;11.960;2022-11-20T04:45:36;3.67;;;2.60;;
23362;SDS011;11853;48.080;11.960;2022-11-20T04:48:02;3.08;;;2.65;;
23362;SDS011;11853;48.080;11.960;2022-11-20T04:50:27;2.55;;;2.35;;
23362;SDS011;11853;48.080;11.960;2022-11-20T04:52:53;3.95;;;2.50;;
23362;SDS011;11853;48.080;11.960;2022-11-20T04:55:18;2.70;;;2.50;;
23362;SDS011;11853;48.080;11.960;2022-11-20T04:57:44;3.65;;;2.70;;
23362;SDS011;11853;48.080;11.960;2022-11-20T05:00:09;2.80;;;2.60;;
23362;SDS011;11853;48.080;11.960;2022-11-20T05:02:35;2.80;;;2.60;;
23362;SDS011;11853;48.080;11.960;2022-11-20T05:05:01;2.60;;;2.40;;
23362;SDS011;11853;48.080;11.960;2022-11-20T05:07:27;2.63;;;2.33;;
23362;SDS011;11853;48.080;11.960;2022-11-20T05:09:52;4.47;;;2.63;;
23362;SDS011;11853;48.080;11.960;2022-11-20T05:12:18;4.03;;;2.75;;
23362;SDS011;11853;48.080;11.960;2022-11-20T05:14:43;2.58;;;2.38;;
23362;SDS011;11853;48.080;11.960;2022-11-20T05:17:12;3.78;;;2.58;;
23362;SDS011;11853;48.080;11.960;2022-11-20T05:19:37;2.45;;;2.30;;
23362;SDS011;11853;48.080;11.960;2022-11-20T05:22:04;2.72;;;2.20;;
23362;SDS011;11853;48.080;11.960;2022-11-20T05:24:30;2.85;;;2.65;;
23362;SDS011;11853;48.080;11.960;2022-11-20T05:26:55;2.55;;;2.35;;
23362;SDS011;11853;48.080;11.960;2022-11-20T05:29:21;2.75;;;2.55;;
23362;SDS011;11853;48.080;11.960;2022-11-20T05:31:46;3.42;;;2.25;;
23362;SDS011;11853;48.080;11.960;2022-11-20T05:34:12;3.95;;;2.58;;
23362;SDS011;11853;48.080;11.960;2022-11-20T05:36:38;3.38;;;2.72;;
23362;SDS011;11853;48.080;11.960;2022-11-20T05:39:03;2.72;;;2.47;;
23362;SDS011;11853;48.080;11.960;2022-11-20T05:41:29;2.40;;;2.20;;
23362;SDS011;11853;48.080;11.960;2022-11-20T05:43:55;2.60;;;2.40;;
23362;SDS011;11853;48.080;11.960;2022-11-20T05:46:21;2.70;;;2.50;;
23362;SDS011;11853;48.080;11.960;2022-11-20T05:48:46;3.08;;;2.78;;
23362;SDS011;11853;48.080;11.960;2022-11-20T05:51:14;2.95;;;2.40;;
23362;SDS011;11853;48.080;11.960;2022-11-20T05:53:41;3.20;;;2.40;;
23362;SDS011;11853;48.080;11.960;2022-11-20T05:56:08;2.60;;;2.40;;
23362;SDS011;11853;48.080;11.960;2022-11-20T05:58:36;2.78;;;2.58;;
23362;SDS011;11853;48.080;11.960;2022-11-20T06:03:32;2.80;;;2.60;;
23362;SDS011;11853;48.080;11.960;2022-11-20T06:06:01;2.60;;;2.40;;
23362;SDS011;11853;48.080;11.960;2022-11-20T06:08:28;2.83;;;2.35;;
23362;SDS011;11853;48.080;11.960;2022-11-20T06:10:54;2.83;;;2.63;;
23362;SDS011;11853;48.080;11.960;2022-11-20T06:13:19;2.53;;;2.33;;
23362;SDS011;11853;48.080;11.960;2022-11-20T06:15:48;2.72;;;2.50;;
23362;SDS011;11853;48.080;11.960;2022-11-20T06:18:14;2.92;;;2.63;;
23362;SDS011;11853;48.080;11.960;2022-11-20T06:20:40;2.60;;;2.40;;
23362;SDS011;11853;48.080;11.960;2022-11-20T06:23:06;6.72;;;2.70;;
23362;SDS011;11853;48.080;11.960;2022-11-20T06:25:31;2.83;;;2.63;;
23362;SDS011;11853;48.080;11.960;2022-11-20T06:27:57;3.15;;;2.80;;
23362;SDS011;11853;48.080;11.960;2022-11-20T06:30:22;3.28;;;2.97;;
23362;SDS011;11853;48.080;11.960;2022-11-20T06:32:48;3.10;;;2.90;;
23362;SDS011;11853;48.080;11.960;2022-11-20T06:35:13;3.55;;;3.22;;
23362;SDS011;11853;48.080;11.960;2022-11-20T06:37:39;3.33;;;3.03;;
23362;SDS011;11853;48.080;11.960;2022-11-20T06:40:05;3.72;;;3.30;;
23362;SDS011;11853;48.080;11.960;2022-11-20T06:42:32;3.53;;;3.33;;
23362;SDS011;11853;48.080;11.960;2022-11-20T06:44:57;3.70;;;3.40;;
23362;SDS011;11853;48.080;11.960;2022-11-20T06:47:23;3.60;;;3.30;;
23362;SDS011;11853;48.080;11.960;2022-11-20T06:49:48;3.05;;;2.85;;
23362;SDS011;11853;48.080;11.960;2022-11-20T06:52:14;4.40;;;3.17;;
23362;SDS011;11853;48.080;11.960;2022-11-20T06:54:39;3.05;;;2.85;;
23362;SDS011;11853;48.080;11.960;2022-11-20T06:57:05;3.25;;;3.00;;
23362;SDS011;11853;48.080;11.960;2022-11-20T06:59:30;3.53;;;3.15;;
23362;SDS011;11853;48.080;11.960;2022-11-20T07:01:56;3.55;;;3.25;;
23362;SDS011;11853;48.080;11.960;2022-11-20T07:04:21;3.80;;;3.50;;
23362;SDS011;11853;48.080;11.960;2022-11-20T07:06:47;3.35;;;3.15;;
23362;SDS011;11853;48.080;11.960;2022-11-20T07:09:13;3.40;;;3.10;;
23362;SDS011;11853;48.080;11.960;2022-11-20T07:11:39;3.60;;;3.30;;
23362;SDS011;11853;48.080;11.960;2022-11-20T07:14:04;3.78;;;3.47;;
23362;SDS011;11853;48.080;11.960;2022-11-20T07:16:30;3.70;;;2.92;;
23362;SDS011;11853;48.080;11.960;2022-11-20T07:18:55;3.67;;;3.30;;
23362;SDS011;11853;48.080;11.960;2022-11-20T07:21:21;3.08;;;2.70;;
23362;SDS011;11853;48.080;11.960;2022-11-20T07:23:46;2.92;;;2.72;;
23362;SDS011;11853;48.080;11.960;2022-11-20T07:26:12;3.47;;;3.17;;
23362;SDS011;11853;48.080;11.960;2022-11-20T07:28:38;3.15;;;2.85;;
23362;SDS011;11853;48.080;11.960;2022-11-20T07:31:03;3.55;;;3.25;;
23362;SDS011;11853;48.080;11.960;2022-11-20T07:33:31;3.55;;;3.25;;
23362;SDS011;11853;48.080;11.960;2022-11-20T07:36:00;3.45;;;3.15;;
23362;SDS011;11853;48.080;11.960;2022-11-20T07:38:26;3.90;;;2.80;;
23362;SDS011;11853;48.080;11.960;2022-11-20T07:40:58;3.50;;;3.20;;
23362;SDS011;11853;48.080;11.960;2022-11-20T07:43:26;3.70;;;3.40;;
23362;SDS011;11853;48.080;11.960;2022-11-20T07:45:54;3.13;;;2.92;;
23362;SDS011;11853;48.080;11.960;2022-11-20T07:48:21;3.35;;;3.05;;
23362;SDS011;11853;48.080;11.960;2022-11-20T07:50:47;3.38;;;3.17;;
23362;SDS011;11853;48.080;11.960;2022-11-20T07:53:12;2.80;;;2.60;;
23362;SDS011;11853;48.080;11.960;2022-11-20T07:55:39;3.25;;;2.95;;
23362;SDS011;11853;48.080;11.960;2022-11-20T07:58:04;2.78;;;2.53;;
23362;SDS011;11853;48.080;11.960;2022-11-20T08:00:30;3.50;;;3.05;;
23362;SDS011;11853;48.080;11.960;2022-11-20T08:02:56;4.70;;;3.95;;
23362;SDS011;11853;48.080;11.960;2022-11-20T08:05:22;4.20;;;3.00;;
23362;SDS011;11853;48.080;11.960;2022-11-20T08:07:47;2.78;;;2.47;;
23362;SDS011;11853;48.080;11.960;2022-11-20T08:10:14;2.90;;;2.70;;
23362;SDS011;11853;48.080;11.960;2022-11-20T08:12:45;2.45;;;2.33;;
23362;SDS011;11853;48.080;11.960;2022-11-20T08:15:30;2.60;;;2.40;;
23362;SDS011;11853;48.080;11.960;2022-11-20T08:18:13;3.22;;;2.60;;
23362;SDS011;11853;48.080;11.960;2022-11-20T08:20:39;2.40;;;2.20;;
23362;SDS011;11853;48.080;11.960;2022-11-20T08:23:05;2.50;;;2.30;;
23362;SDS011;11853;48.080;11.960;2022-11-20T08:25:33;2.88;;;2.60;;
23362;SDS011;11853;48.080;11.960;2022-11-20T08:28:00;3.45;;;3.15;;
23362;SDS011;11853;48.080;11.960;2022-11-20T08:30:27;2.70;;;2.50;;
23362;SDS011;11853;48.080;11.960;2022-11-20T08:32:54;3.42;;;2.40;;
23362;SDS011;11853;48.080;11.960;2022-11-20T08:35:25;2.55;;;2.35;;
23362;SDS011;11853;48.080;11.960;2022-11-20T08:37:51;2.08;;;1.98;;
23362;SDS011;11853;48.080;11.960;2022-11-20T08:40:17;3.25;;;2.20;;
23362;SDS011;11853;48.080;11.960;2022-11-20T08:42:47;2.53;;;2.33;;
23362;SDS011;11853;48.080;11.960;2022-11-20T08:47:40;2.85;;;2.20;;
23362;SDS011;11853;48.080;11.960;2022-11-20T08:50:07;3.17;;;2.30;;
23362;SDS011;11853;48.080;11.960;2022-11-20T08:52:33;2.95;;;2.67;;
23362;SDS011;11853;48.080;11.960;2022-11-20T08:54:58;2.22;;;2.03;;
23362;SDS011;11853;48.080;11.960;2022-11-20T08:57:24;3.08;;;2.58;;
23362;SDS011;11853;48.080;11.960;2022-11-20T08:59:50;2.88;;;2.67;;
23362;SDS011;11853;48.080;11.960;2022-11-20T09:02:15;3.20;;;2.60;;
23362;SDS011;11853;48.080;11.960;2022-11-20T09:04:41;2.53;;;2.33;;
23362;SDS011;11853;48.080;11.960;2022-11-20T09:07:06;2.40;;;2.10;;
23362;SDS011;11853;48.080;11.960;2022-11-20T09:09:32;2.47;;;2.28;;
23362;SDS011;11853;48.080;11.960;2022-11-20T09:11:57;2.00;;;1.90;;
23362;SDS011;11853;48.080;11.960;2022-11-20T09:14:23;3.00;;;2.03;;
23362;SDS011;11853;48.080;11.960;2022-11-20T09:16:54;2.28;;;1.95;;
23362;SDS011;11853;48.080;11.960;2022-11-20T09:19:20;2.60;;;2.40;;
23362;SDS011;11853;48.080;11.960;2022-11-20T09:21:45;2.50;;;2.22;;
23362;SDS011;11853;48.080;11.960;2022-11-20T09:24:11;3.42;;;2.60;;
23362;SDS011;11853;48.080;11.960;2022-11-20T09:26:36;2.42;;;1.95;;
23362;SDS011;11853;48.080;11.960;2022-11-20T09:29:02;2.35;;;2.15;;
23362;SDS011;11853;48.080;11.960;2022-11-20T09:31:28;3.13;;;2.35;;
23362;SDS011;11853;48.080;11.960;2022-11-20T09:33:53;2.50;;;2.17;;
23362;SDS011;11853;48.080;11.960;2022-11-20T09:36:19;2.03;;;1.80;;
23362;SDS011;11853;48.080;11.960;2022-11-20T09:38:45;2.00;;;1.80;;
23362;SDS011;11853;48.080;11.960;2022-11-20T09:41:19;2.92;;;2.10;;
23362;SDS011;11853;48.080;11.960;2022-11-20T09:44:10;2.65;;;1.90;;
23362;SDS011;11853;48.080;11.960;2022-11-20T09:52:56;5.13;;;4.63;;
23362;SDS011;11853;48.080;11.960;2022-11-20T09:55:25;5.50;;;4.85;;
23362;SDS011;11853;48.080;11.960;2022-11-20T09:57:54;2.38;;;1.95;;
23362;SDS011;11853;48.080;11.960;2022-11-20T10:00:20;2.20;;;2.00;;
23362;SDS011;11853;48.080;11.960;2022-11-20T10:05:47;2.38;;;2.03;;
23362;SDS011;11853;48.080;11.960;2022-11-20T10:10:52;1.80;;;1.70;;
23362;SDS011;11853;48.080;11.960;2022-11-20T10:29:47;5.88;;;3.50;;
23362;SDS011;11853;48.080;11.960;2022-11-20T10:32:31;3.72;;;2.97;;
23362;SDS011;11853;48.080;11.960;2022-11-20T10:37:48;1.88;;;1.70;;
23362;SDS011;11853;48.080;11.960;2022-11-20T10:42:57;1.90;;;1.50;;
23362;SDS011;11853;48.080;11.960;2022-11-20T10:48:14;1.60;;;1.40;;
23362;SDS011;11853;48.080;11.960;2022-11-20T10:51:25;1.50;;;1.40;;
23362;SDS011;11853;48.080;11.960;2022-11-20T10:56:56;1.42;;;1.33;;
23362;SDS011;11853;48.080;11.960;2022-11-20T11:02:14;2.17;;;1.42;;
23362;SDS011;11853;48.080;11.960;2022-11-20T11:04:45;1.98;;;1.38;;
23362;SDS011;11853;48.080;11.960;2022-11-20T11:07:30;1.20;;;1.10;;
23362;SDS011;11853;48.080;11.960;2022-11-20T11:10:05;1.00;;;1.00;;
23362;SDS011;11853;48.080;11.960;2022-11-20T11:12:43;2.05;;;1.33;;
23362;SDS011;11853;48.080;11.960;2022-11-20T11:15:14;2.67;;;1.40;;
23362;SDS011;11853;48.080;11.960;2022-11-20T11:17:53;1.73;;;1.25;;
23362;SDS011;11853;48.080;11.960;2022-11-20T11:20:19;1.65;;;1.55;;
23362;SDS011;11853;48.080;11.960;2022-11-20T11:22:48;3.20;;;2.00;;
23362;SDS011;11853;48.080;11.960;2022-11-20T11:25:23;1.20;;;1.05;;
23362;SDS011;11853;48.080;11.960;2022-11-20T11:28:00;1.27;;;1.05;;
23362;SDS011;11853;48.080;11.960;2022-11-20T11:30:28;1.73;;;1.20;;
23362;SDS011;11853;48.080;11.960;2022-11-20T11:33:11;1.13;;;0.98;;
23362;SDS011;11853;48.080;11.960;2022-11-20T11:35:47;1.50;;;1.30;;
23362;SDS011;11853;48.080;11.960;2022-11-20T11:38:21;1.83;;;1.25;;
23362;SDS011;11853;48.080;11.960;2022-11-20T11:40:53;1.65;;;1.20;;
23362;SDS011;11853;48.080;11.960;2022-11-20T11:43:22;1.73;;;1.33;;
23362;SDS011;11853;48.080;11.960;2022-11-20T11:49:00;1.20;;;1.10;;
23362;SDS011;11853;48.080;11.960;2022-11-20T11:51:56;1.33;;;1.10;;
23362;SDS011;11853;48.080;11.960;2022-11-20T11:54:23;1.13;;;1.10;;
23362;SDS011;11853;48.080;11.960;2022-11-20T11:56:51;1.23;;;1.13;;
23362;SDS011;11853;48.080;11.960;2022-11-20T11:59:26;1.52;;;1.17;;
23362;SDS011;11853;48.080;11.960;2022-11-20T12:02:01;1.45;;;1.35;;
23362;SDS011;11853;48.080;11.960;2022-11-20T12:04:46;1.48;;;1.38;;
23362;SDS011;11853;48.080;11.960;2022-11-20T12:07:22;1.37;;;0.90;;
23362;SDS011;11853;48.080;11.960;2022-11-20T12:09:59;1.88;;;1.20;;
23362;SDS011;11853;48.080;11.960;2022-11-20T12:12:31;4.30;;;1.17;;
23362;SDS011;11853;48.080;11.960;2022-11-20T12:15:09;1.55;;;1.05;;
23362;SDS011;11853;48.080;11.960;2022-11-20T12:17:36;1.00;;;1.00;;
23362;SDS011;11853;48.080;11.960;2022-11-20T12:20:02;1.30;;;1.20;;
23362;SDS011;11853;48.080;11.960;2022-11-20T12:25:32;2.80;;;1.60;;
23362;SDS011;11853;48.080;11.960;2022-11-20T12:28:11;2.08;;;1.30;;
23362;SDS011;11853;48.080;11.960;2022-11-20T12:55:21;3.47;;;2.10;;
23362;SDS011;11853;48.080;11.960;2022-11-20T12:58:05;1.88;;;1.58;;
23362;SDS011;11853;48.080;11.960;2022-11-20T13:00:46;2.20;;;1.98;;
23362;SDS011;11853;48.080;11.960;2022-11-20T13:03:31;3.42;;;1.90;;
23362;SDS011;11853;48.080;11.960;2022-11-20T13:06:11;1.88;;;1.60;;
23362;SDS011;11853;48.080;11.960;2022-11-20T13:08:43;1.85;;;1.55;;
23362;SDS011;11853;48.080;11.960;2022-11-20T13:16:53;2.97;;;2.15;;
23362;SDS011;11853;48.080;11.960;2022-11-20T13:19:38;4.80;;;2.40;;
23362;SDS011;11853;48.080;11.960;2022-11-20T13:22:04;3.30;;;2.72;;
23362;SDS011;11853;48.080;11.960;2022-11-20T13:24:30;2.92;;;2.22;;
23362;SDS011;11853;48.080;11.960;2022-11-20T13:29:40;4.20;;;1.95;;
23362;SDS011;11853;48.080;11.960;2022-11-20T13:34:37;4.07;;;2.92;;
23362;SDS011;11853;48.080;11.960;2022-11-20T13:37:03;7.60;;;4.15;;
23362;SDS011;11853;48.080;11.960;2022-11-20T13:39:35;2.67;;;2.20;;
23362;SDS011;11853;48.080;11.960;2022-11-20T13:44:39;2.78;;;1.88;;
23362;SDS011;11853;48.080;11.960;2022-11-20T13:49:48;2.00;;;1.80;;
23362;SDS011;11853;48.080;11.960;2022-11-20T13:52:33;5.43;;;3.22;;
23362;SDS011;11853;48.080;11.960;2022-11-20T14:00:17;1.98;;;1.88;;
23362;SDS011;11853;48.080;11.960;2022-11-20T14:02:46;2.17;;;1.95;;
23362;SDS011;11853;48.080;11.960;2022-11-20T14:05:38;2.20;;;2.00;;
23362;SDS011;11853;48.080;11.960;2022-11-20T14:08:24;3.75;;;2.70;;
23362;SDS011;11853;48.080;11.960;2022-11-20T14:13:58;2.42;;;2.20;;
23362;SDS011;11853;48.080;11.960;2022-11-20T14:16:24;3.05;;;1.98;;
23362;SDS011;11853;48.080;11.960;2022-11-20T14:18:52;2.85;;;2.33;;
23362;SDS011;11853;48.080;11.960;2022-11-20T14:21:28;2.50;;;2.30;;
23362;SDS011;11853;48.080;11.960;2022-11-20T14:24:04;2.90;;;2.63;;
23362;SDS011;11853;48.080;11.960;2022-11-20T14:26:31;3.17;;;2.88;;
23362;SDS011;11853;48.080;11.960;2022-11-20T14:28:58;5.25;;;3.72;;
23362;SDS011;11853;48.080;11.960;2022-11-20T14:31:24;4.53;;;3.95;;
23362;SDS011;11853;48.080;11.960;2022-11-20T14:33:52;5.50;;;4.18;;
23362;SDS011;11853;48.080;11.960;2022-11-20T14:36:23;5.15;;;4.30;;
23362;SDS011;11853;48.080;11.960;2022-11-20T14:38:50;4.18;;;3.63;;
23362;SDS011;11853;48.080;11.960;2022-11-20T14:41:22;5.82;;;4.22;;
23362;SDS011;11853;48.080;11.960;2022-11-20T14:43:58;5.82;;;4.68;;
23362;SDS011;11853;48.080;11.960;2022-11-20T14:46:27;7.35;;;5.57;;
23362;SDS011;11853;48.080;11.960;2022-11-20T14:48:55;6.25;;;5.65;;
23362;SDS011;11853;48.080;11.960;2022-11-20T14:54:17;4.70;;;4.40;;
23362;SDS011;11853;48.080;11.960;2022-11-20T14:56:59;3.80;;;3.38;;
23362;SDS011;11853;48.080;11.960;2022-11-20T14:59:28;5.10;;;3.35;;
23362;SDS011;11853;48.080;11.960;2022-11-20T15:04:26;8.57;;;4.93;;
23362;SDS011;11853;48.080;11.960;2022-11-20T15:06:54;6.47;;;4.28;;
23362;SDS011;11853;48.080;11.960;2022-11-20T15:09:21;4.70;;;3.88;;
23362;SDS011;11853;48.080;11.960;2022-11-20T15:11:59;5.35;;;4.05;;
23362;SDS011;11853;48.080;11.960;2022-11-20T15:14:28;3.88;;;2.60;;
23362;SDS011;11853;48.080;11.960;2022-11-20T15:16:54;3.42;;;2.60;;
23362;SDS011;11853;48.080;11.960;2022-11-20T15:19:21;4.47;;;3.13;;
23362;SDS011;11853;48.080;11.960;2022-11-20T15:21:48;3.83;;;3.40;;
23362;SDS011;11853;48.080;11.960;2022-11-20T15:24:14;2.50;;;2.30;;
23362;SDS011;11853;48.080;11.960;2022-11-20T15:26:40;4.28;;;3.03;;
23362;SDS011;11853;48.080;11.960;2022-11-20T15:29:10;4.75;;;3.50;;
23362;SDS011;11853;48.080;11.960;2022-11-20T15:31:39;2.72;;;2.50;;
23362;SDS011;11853;48.080;11.960;2022-11-20T15:34:13;2.80;;;2.47;;
23362;SDS011;11853;48.080;11.960;2022-11-20T15:36:40;3.58;;;2.95;;
23362;SDS011;11853;48.080;11.960;2022-11-20T15:39:06;3.25;;;2.42;;
23362;SDS011;11853;48.080;11.960;2022-11-20T15:41:33;2.63;;;2.25;;
23362;SDS011;11853;48.080;11.960;2022-11-20T15:44:00;3.13;;;2.10;;
23362;SDS011;11853;48.080;11.960;2022-11-20T15:46:26;2.45;;;1.90;;
23362;SDS011;11853;48.080;11.960;2022-11-20T15:48:56;3.60;;;2.47;;
23362;SDS011;11853;48.080;11.960;2022-11-20T15:51:26;3.22;;;2.08;;
23362;SDS011;11853;48.080;11.960;2022-11-20T15:54:13;4.30;;;2.28;;
23362;SDS011;11853;48.080;11.960;2022-11-20T15:56:42;2.50;;;2.00;;
23362;SDS011;11853;48.080;11.960;2022-11-20T15:59:08;3.42;;;2.63;;
23362;SDS011;11853;48.080;11.960;2022-11-20T16:01:33;3.38;;;3.03;;
23362;SDS011;11853;48.080;11.960;2022-11-20T16:03:59;2.75;;;2.17;;
23362;SDS011;11853;48.080;11.960;2022-11-20T16:06:25;1.60;;;1.50;;
23362;SDS011;11853;48.080;11.960;2022-11-20T16:08:51;1.50;;;1.40;;
23362;SDS011;11853;48.080;11.960;2022-11-20T16:11:17;1.70;;;1.60;;
23362;SDS011;11853;48.080;11.960;2022-11-20T16:13:43;1.95;;;1.85;;
23362;SDS011;11853;48.080;11.960;2022-11-20T16:16:31;2.65;;;1.88;;
23362;SDS011;11853;48.080;11.960;2022-11-20T16:19:00;2.38;;;1.75;;
23362;SDS011;11853;48.080;11.960;2022-11-20T16:21:26;1.75;;;1.50;;
23362;SDS011;11853;48.080;11.960;2022-11-20T16:23:56;3.33;;;2.30;;
23362;SDS011;11853;48.080;11.960;2022-11-20T16:26:24;3.53;;;2.30;;
23362;SDS011;11853;48.080;11.960;2022-11-20T16:28:50;4.03;;;3.05;;
23362;SDS011;11853;48.080;11.960;2022-11-20T16:31:16;3.40;;;2.38;;
23362;SDS011;11853;48.080;11.960;2022-11-20T16:33:50;4.10;;;2.05;;
23362;SDS011;11853;48.080;11.960;2022-11-20T16:36:18;2.75;;;2.05;;